Lammers, Minnesota
Current Conditions -  °F | °C
As of 8:32 AM on Friday 28 Nov 2014 (Local Time) from KBJI Reporting Station
Light Snow Light Snow  
Wind Chill: -2°   Ceiling: 1200
Heat Index:   Visibility: 7mi
Dew Point:   Wind: 7mph
Humidity: 83%   Direction: 140°SE
Pressure: 29.95"   Gusts: NA
Location:  47.545°N, 95.1206°W
Report Text: KBJI 281432Z AUTO 14006KT 7SM -SN OVC012 M13/M15 A2995 RMK AO2 T11281151
Loading
Personal Weather Stations






























Interactive Weather Map New forecast layout! Learn more

10-Day Weather Forecast

Advertisements
Track Severe Weather on mobile